createdAt,value
2022-10-05T00:00:34.403Z,1004.19
2022-10-05T00:01:34.442Z,1004.16
2022-10-05T00:02:34.350Z,1004.18
2022-10-05T00:03:34.399Z,1004.24
2022-10-05T00:04:34.352Z,1004.13
2022-10-05T00:05:34.384Z,1004.17
2022-10-05T00:06:34.323Z,1004.18
2022-10-05T00:07:34.334Z,1004.10
2022-10-05T00:08:34.301Z,1004.08
2022-10-05T00:09:34.308Z,1004.08
2022-10-05T00:10:34.297Z,1004.08
2022-10-05T00:11:34.326Z,1004.08
2022-10-05T00:12:34.294Z,1004.06
2022-10-05T00:13:34.275Z,1004.17
2022-10-05T00:14:34.257Z,1004.15
2022-10-05T00:15:34.244Z,1004.16
2022-10-05T00:16:34.321Z,1004.14
2022-10-05T00:17:34.235Z,1004.10
2022-10-05T00:18:34.219Z,1004.06
2022-10-05T00:19:34.216Z,1004.05
2022-10-05T00:20:34.209Z,1004.13
2022-10-05T00:21:34.205Z,1004.08
2022-10-05T00:22:34.206Z,1004.21
2022-10-05T00:23:34.169Z,1004.18
2022-10-05T00:24:34.173Z,1004.19
2022-10-05T00:25:34.201Z,1004.18
2022-10-05T00:26:34.140Z,1004.13
2022-10-05T00:27:34.206Z,1004.13
2022-10-05T00:28:34.199Z,1004.09
2022-10-05T00:29:34.207Z,1004.09
2022-10-05T00:30:34.146Z,1004.02
2022-10-05T00:31:34.191Z,1004.03
2022-10-05T00:32:34.135Z,1004.01
2022-10-05T00:33:34.104Z,1004.04
2022-10-05T00:34:34.105Z,1004.02
2022-10-05T00:35:34.119Z,1004.08
2022-10-05T00:36:34.157Z,1004.02
2022-10-05T00:37:34.072Z,1004.03
2022-10-05T00:38:34.095Z,1004.02
2022-10-05T00:39:34.063Z,1004.04
2022-10-05T00:40:34.069Z,1004.03
2022-10-05T00:41:34.072Z,1004.07
2022-10-05T00:42:34.998Z,1004.05
2022-10-05T00:43:34.717Z,1003.99
2022-10-05T00:44:34.657Z,1003.97
2022-10-05T00:45:34.037Z,1003.95
2022-10-05T00:46:34.021Z,1003.99
2022-10-05T00:47:34.007Z,1003.90
2022-10-05T00:48:34.008Z,1003.94
2022-10-05T00:49:33.966Z,1003.88
2022-10-05T00:50:33.974Z,1003.88
2022-10-05T00:51:33.955Z,1003.88
2022-10-05T00:52:33.962Z,1003.87
2022-10-05T00:53:34.044Z,1003.85
2022-10-05T00:54:33.941Z,1003.89
2022-10-05T00:55:33.994Z,1003.82
2022-10-05T00:56:33.939Z,1003.81
2022-10-05T00:57:34.684Z,1003.80
2022-10-05T00:58:33.942Z,1003.79
2022-10-05T00:59:33.896Z,1003.80
2022-10-05T01:00:33.919Z,1003.85
2022-10-05T01:01:33.938Z,1003.83
2022-10-05T01:02:36.877Z,1003.86
2022-10-05T01:03:34.877Z,1003.87
2022-10-05T01:04:33.865Z,1003.82
2022-10-05T01:05:33.969Z,1003.83
2022-10-05T01:06:33.857Z,1003.84
2022-10-05T01:07:33.890Z,1003.83
2022-10-05T01:08:33.840Z,1003.78
2022-10-05T01:09:33.845Z,1003.82
2022-10-05T01:10:34.502Z,1003.86
2022-10-05T01:11:33.896Z,1003.81
2022-10-05T01:12:33.823Z,1003.80
2022-10-05T01:13:33.824Z,1003.83
2022-10-05T01:14:33.790Z,1003.78
2022-10-05T01:15:33.779Z,1003.82
2022-10-05T01:16:33.851Z,1003.84
2022-10-05T01:17:34.818Z,1003.79
2022-10-05T01:18:33.798Z,1003.89
2022-10-05T01:19:33.772Z,1003.90
2022-10-05T01:20:33.771Z,1003.94
2022-10-05T01:21:33.726Z,1003.91
2022-10-05T01:22:33.782Z,1003.91
2022-10-05T01:23:33.780Z,1003.89
2022-10-05T01:24:33.737Z,1003.92
2022-10-05T01:25:33.700Z,1003.95
2022-10-05T01:26:33.691Z,1003.94
2022-10-05T01:27:33.660Z,1003.95
2022-10-05T01:28:33.725Z,1003.96
2022-10-05T01:29:33.698Z,1003.98
2022-10-05T01:30:33.637Z,1003.96
2022-10-05T01:31:33.659Z,1003.93
2022-10-05T01:32:33.634Z,1004.00
2022-10-05T01:33:33.627Z,1003.98
2022-10-05T01:34:33.654Z,1003.99
2022-10-05T01:35:33.621Z,1003.99
2022-10-05T01:36:33.612Z,1003.97
2022-10-05T01:37:33.598Z,1003.95
2022-10-05T01:38:34.143Z,1003.97
2022-10-05T01:39:33.623Z,1004.00
2022-10-05T01:40:33.570Z,1003.97
2022-10-05T01:41:33.602Z,1003.97
2022-10-05T01:42:35.092Z,1003.96
2022-10-05T01:43:33.543Z,1003.96
2022-10-05T01:44:33.551Z,1003.97
2022-10-05T02:03:53.966Z,1003.61
2022-10-05T02:05:01.779Z,1003.63
2022-10-05T02:05:54.958Z,1003.62
2022-10-05T02:06:55.095Z,1003.57
2022-10-05T02:07:55.113Z,1003.53
2022-10-05T02:08:55.108Z,1003.49
2022-10-05T02:09:55.143Z,1003.47
2022-10-05T02:10:55.143Z,1003.48
2022-10-05T02:11:55.066Z,1003.47
2022-10-05T02:12:55.095Z,1003.45
2022-10-05T02:13:55.086Z,1003.40
2022-10-05T02:14:55.053Z,1003.39
2022-10-05T02:15:55.114Z,1003.35
2022-10-05T02:16:55.058Z,1003.34
2022-10-05T02:17:55.009Z,1003.38
2022-10-05T02:18:55.035Z,1003.30
2022-10-05T02:19:55.055Z,1003.32
2022-10-05T02:20:55.111Z,1003.24
2022-10-05T02:21:54.980Z,1003.26
2022-10-05T02:22:54.951Z,1003.21
2022-10-05T02:23:54.958Z,1003.17
2022-10-05T02:24:54.943Z,1003.16
2022-10-05T02:25:54.941Z,1003.17
2022-10-05T02:26:54.928Z,1003.17
2022-10-05T02:27:55.015Z,1003.18
2022-10-05T02:28:54.904Z,1003.22
2022-10-05T02:29:54.940Z,1003.23
2022-10-05T02:30:54.941Z,1003.20
2022-10-05T02:31:54.921Z,1003.13
2022-10-05T02:32:54.875Z,1003.13
2022-10-05T02:33:54.882Z,1003.16
2022-10-05T02:34:55.868Z,1003.18
2022-10-05T02:35:54.842Z,1003.23
2022-10-05T02:36:54.862Z,1003.27
2022-10-05T02:37:54.853Z,1003.21
2022-10-05T02:38:54.844Z,1003.32
2022-10-05T02:39:54.844Z,1003.31
2022-10-05T02:40:54.840Z,1003.33
2022-10-05T02:41:54.808Z,1003.33
2022-10-05T02:42:54.804Z,1003.35
2022-10-05T02:43:54.797Z,1003.40
2022-10-05T02:44:54.780Z,1003.38
2022-10-05T02:45:54.851Z,1003.39
2022-10-05T02:46:57.336Z,1003.45
2022-10-05T02:47:55.776Z,1003.43
2022-10-05T02:48:54.790Z,1003.49
2022-10-05T02:49:54.741Z,1003.49
2022-10-05T02:50:54.761Z,1003.50
2022-10-05T02:51:54.738Z,1003.45
2022-10-05T02:52:54.772Z,1003.47
2022-10-05T02:53:54.717Z,1003.50
2022-10-05T02:54:54.702Z,1003.55
2022-10-05T02:55:54.686Z,1003.56
2022-10-05T02:56:54.683Z,1003.50
2022-10-05T02:57:54.704Z,1003.56
2022-10-05T02:58:54.699Z,1003.49
2022-10-05T02:59:54.700Z,1003.53
2022-10-05T03:00:54.728Z,1003.49
2022-10-05T03:01:54.706Z,1003.53
2022-10-05T03:02:54.665Z,1003.51
2022-10-05T03:03:54.655Z,1003.53
2022-10-05T03:04:54.617Z,1003.50
2022-10-05T03:05:54.632Z,1003.51
2022-10-05T03:06:54.625Z,1003.52
2022-10-05T03:07:54.620Z,1003.46
2022-10-05T03:08:54.612Z,1003.47
2022-10-05T03:09:58.827Z,1003.42
2022-10-05T03:10:56.564Z,1003.38
2022-10-05T03:11:54.582Z,1003.42
2022-10-05T03:12:54.598Z,1003.39
2022-10-05T03:13:54.556Z,1003.43
2022-10-05T03:14:54.559Z,1003.37
2022-10-05T03:15:54.570Z,1003.42
2022-10-05T03:16:54.561Z,1003.38
2022-10-05T03:17:54.556Z,1003.48
2022-10-05T03:18:54.528Z,1003.44
2022-10-05T03:19:54.556Z,1003.41
2022-10-05T03:20:54.524Z,1003.48
2022-10-05T03:21:54.591Z,1003.44
2022-10-05T03:22:54.536Z,1003.40
2022-10-05T03:23:54.475Z,1003.43
2022-10-05T03:24:54.539Z,1003.41
2022-10-05T03:25:54.537Z,1003.44
2022-10-05T03:26:54.499Z,1003.49
2022-10-05T03:27:54.542Z,1003.46
2022-10-05T03:28:54.497Z,1003.46
2022-10-05T03:29:54.461Z,1003.44
2022-10-05T03:30:54.516Z,1003.42
2022-10-05T03:31:54.465Z,1003.42
2022-10-05T03:32:54.442Z,1003.49
2022-10-05T03:33:54.437Z,1003.49
2022-10-05T03:34:54.419Z,1003.48
2022-10-05T03:35:54.441Z,1003.47
2022-10-05T03:36:54.418Z,1003.45
2022-10-05T03:37:54.418Z,1003.45
2022-10-05T03:38:54.419Z,1003.43
2022-10-05T03:39:54.377Z,1003.38
2022-10-05T03:40:54.343Z,1003.41
2022-10-05T03:41:54.372Z,1003.40
2022-10-05T03:42:54.352Z,1003.40
2022-10-05T03:43:54.393Z,1003.42
2022-10-05T03:44:54.326Z,1003.42
2022-10-05T03:45:54.383Z,1003.34
2022-10-05T03:46:54.349Z,1003.37
2022-10-05T04:02:33.163Z,1003.38
2022-10-05T04:03:33.083Z,1003.38
2022-10-05T04:04:33.075Z,1003.37
2022-10-05T04:05:34.241Z,1003.35
2022-10-05T04:06:34.200Z,1003.34
2022-10-05T04:07:34.173Z,1003.28
2022-10-05T04:08:34.170Z,1003.28
2022-10-05T04:09:34.176Z,1003.24
2022-10-05T04:10:34.226Z,1003.28
2022-10-05T04:11:34.227Z,1003.22
2022-10-05T04:12:34.171Z,1003.24
2022-10-05T04:13:34.305Z,1003.26
2022-10-05T04:14:34.182Z,1003.23
2022-10-05T04:15:34.184Z,1003.26
2022-10-05T04:16:34.139Z,1003.27
2022-10-05T04:17:34.133Z,1003.26
2022-10-05T04:18:34.183Z,1003.27
2022-10-05T04:19:34.122Z,1003.17
2022-10-05T04:20:34.133Z,1003.18
2022-10-05T04:21:34.112Z,1003.17
2022-10-05T04:22:34.144Z,1003.13
2022-10-05T04:23:34.139Z,1003.07
2022-10-05T04:24:34.100Z,1003.12
2022-10-05T04:25:34.093Z,1003.11
2022-10-05T04:26:34.119Z,1003.10
2022-10-05T04:27:34.381Z,1003.09
2022-10-05T04:28:34.083Z,1003.05
2022-10-05T04:29:34.033Z,1003.05
2022-10-05T04:30:34.023Z,1003.04
2022-10-05T04:31:34.127Z,1003.03
2022-10-05T04:32:34.110Z,1003.08
2022-10-05T04:33:34.012Z,1003.08
2022-10-05T04:34:34.015Z,1003.07
2022-10-05T04:35:34.000Z,1003.11
2022-10-05T04:36:33.997Z,1003.07
2022-10-05T04:37:34.034Z,1003.02
2022-10-05T04:38:35.005Z,1003.15
2022-10-05T04:39:33.980Z,1003.07
2022-10-05T04:40:34.009Z,1003.07
2022-10-05T04:41:33.944Z,1003.10
2022-10-05T04:42:33.945Z,1003.01
2022-10-05T04:43:34.000Z,1003.04
2022-10-05T04:44:33.966Z,1003.00
2022-10-05T04:45:33.942Z,1003.00
2022-10-05T04:46:34.067Z,1003.03
2022-10-05T04:47:33.945Z,1003.01
2022-10-05T04:48:33.952Z,1002.99
2022-10-05T04:49:33.888Z,1002.97
2022-10-05T04:50:33.898Z,1002.96
2022-10-05T04:51:33.895Z,1003.02
2022-10-05T04:52:33.887Z,1002.99
2022-10-05T04:53:33.879Z,1003.00
2022-10-05T04:54:33.974Z,1002.98
2022-10-05T04:55:33.890Z,1003.04
2022-10-05T04:56:33.897Z,1003.01
2022-10-05T04:57:33.869Z,1003.06
2022-10-05T04:58:34.697Z,1002.99
2022-10-05T04:59:33.886Z,1003.00
2022-10-05T05:00:33.896Z,1003.04
2022-10-05T05:01:33.896Z,1003.07
2022-10-05T05:02:33.859Z,1003.08
2022-10-05T05:03:33.861Z,1003.07
2022-10-05T05:04:33.775Z,1003.12
2022-10-05T05:05:33.824Z,1003.04
2022-10-05T05:06:33.809Z,1003.04
2022-10-05T05:07:33.720Z,1003.06
2022-10-05T05:08:33.764Z,1003.06
2022-10-05T05:09:33.755Z,1003.04
2022-10-05T05:10:33.811Z,1003.01
2022-10-05T05:11:33.728Z,1002.99
2022-10-05T05:12:33.718Z,1002.99
2022-10-05T05:13:33.720Z,1002.99
2022-10-05T05:14:33.726Z,1003.05
2022-10-05T05:15:33.705Z,1003.07
2022-10-05T05:16:33.729Z,1003.11
2022-10-05T05:17:33.685Z,1003.07
2022-10-05T05:18:33.748Z,1003.09
2022-10-05T05:19:33.684Z,1003.09
2022-10-05T05:20:34.393Z,1003.09
2022-10-05T05:21:33.693Z,1003.09
2022-10-05T05:22:33.729Z,1003.07
2022-10-05T05:23:33.698Z,1003.06
2022-10-05T05:24:33.630Z,1003.14
2022-10-05T05:25:33.611Z,1003.05
2022-10-05T05:26:45.574Z,1003.11
2022-10-05T05:27:35.600Z,1003.07
2022-10-05T05:28:33.650Z,1003.10
2022-10-05T05:29:33.665Z,1003.03
2022-10-05T05:30:33.595Z,1003.05
2022-10-05T05:31:33.619Z,1003.11
2022-10-05T05:32:33.604Z,1003.09
2022-10-05T05:33:33.590Z,1003.12
2022-10-05T05:34:33.578Z,1003.14
2022-10-05T05:35:33.622Z,1003.13
2022-10-05T05:36:33.529Z,1003.12
2022-10-05T05:37:33.551Z,1003.05
2022-10-05T05:38:33.497Z,1003.07
2022-10-05T05:39:33.554Z,1003.01
2022-10-05T05:40:33.506Z,1003.08
2022-10-05T05:41:33.540Z,1003.08
2022-10-05T05:42:33.528Z,1003.12
2022-10-05T05:43:33.524Z,1003.09
2022-10-05T05:44:38.454Z,1003.09
2022-10-05T05:45:35.500Z,1003.10
2022-10-05T05:46:58.325Z,1003.03
2022-10-05T05:47:35.621Z,1003.12
2022-10-05T05:48:33.465Z,1003.07
2022-10-05T05:49:33.499Z,1003.08
2022-10-05T05:50:33.480Z,1003.03
2022-10-05T05:51:33.432Z,1003.01
2022-10-05T05:52:33.452Z,1002.99
2022-10-05T05:53:33.409Z,1003.01
2022-10-05T05:54:33.472Z,1002.99
2022-10-05T05:55:33.455Z,1002.99
2022-10-05T05:56:33.405Z,1002.94
2022-10-05T05:57:34.153Z,1002.90
2022-10-05T05:58:33.418Z,1002.93
2022-10-05T05:59:33.362Z,1002.83
2022-10-05T06:00:33.394Z,1002.92
2022-10-05T06:01:34.032Z,1002.94
2022-10-05T06:02:34.566Z,1002.87
2022-10-05T06:03:33.352Z,1002.96
2022-10-05T06:04:33.411Z,1002.87
2022-10-05T06:05:33.342Z,1002.85
2022-10-05T06:06:33.386Z,1002.85
2022-10-05T06:07:33.399Z,1002.78
2022-10-05T06:08:33.278Z,1002.82
2022-10-05T06:09:33.308Z,1002.75
2022-10-05T06:10:33.319Z,1002.77
2022-10-05T06:11:33.327Z,1002.77
2022-10-05T06:12:33.321Z,1002.77
2022-10-05T06:13:33.312Z,1002.71
2022-10-05T06:14:33.366Z,1002.74
2022-10-05T06:15:33.282Z,1002.69
2022-10-05T06:16:33.324Z,1002.73
2022-10-05T06:17:33.308Z,1002.73
2022-10-05T06:18:33.335Z,1002.69
2022-10-05T06:19:33.229Z,1002.68
2022-10-05T06:20:33.245Z,1002.72
2022-10-05T06:21:33.252Z,1002.69
2022-10-05T06:22:33.287Z,1002.74
2022-10-05T06:23:33.309Z,1002.67
2022-10-05T06:24:33.245Z,1002.61
2022-10-05T06:25:33.224Z,1002.62
2022-10-05T06:26:33.235Z,1002.64
2022-10-05T06:27:33.230Z,1002.64
2022-10-05T06:28:33.230Z,1002.75
2022-10-05T06:29:33.207Z,1002.65
2022-10-05T06:30:33.203Z,1002.66
2022-10-05T06:31:33.185Z,1002.67
2022-10-05T06:32:33.343Z,1002.58
2022-10-05T06:33:33.172Z,1002.58
2022-10-05T06:34:33.171Z,1002.63
2022-10-05T06:35:33.110Z,1002.63
2022-10-05T06:36:33.140Z,1002.67
2022-10-05T06:37:33.182Z,1002.78
2022-10-05T06:38:33.137Z,1002.79
2022-10-05T06:39:33.145Z,1002.83
2022-10-05T06:40:33.073Z,1002.77
2022-10-05T06:41:33.080Z,1002.89
2022-10-05T06:42:33.163Z,1002.91
2022-10-05T06:43:33.050Z,1002.91
2022-10-05T06:44:33.028Z,1002.89
2022-10-05T06:45:33.122Z,1002.95
2022-10-05T06:46:33.123Z,1002.95
2022-10-05T06:47:33.009Z,1002.95
2022-10-05T06:48:33.050Z,1002.90
2022-10-05T06:49:33.008Z,1003.02
2022-10-05T06:50:32.984Z,1003.08
2022-10-05T06:51:32.973Z,1003.05
2022-10-05T06:52:33.008Z,1003.03
2022-10-05T06:53:32.985Z,1003.06
2022-10-05T06:54:32.942Z,1003.10
2022-10-05T06:55:32.924Z,1003.09
2022-10-05T06:56:32.959Z,1003.09
2022-10-05T06:57:32.949Z,1003.11
2022-10-05T06:58:32.965Z,1003.11
2022-10-05T06:59:32.986Z,1003.06
2022-10-05T07:00:32.905Z,1003.11
2022-10-05T07:01:32.931Z,1003.03
2022-10-05T07:02:32.972Z,1003.05
2022-10-05T07:03:32.879Z,1003.00
2022-10-05T07:04:36.780Z,1002.95
2022-10-05T07:05:33.919Z,1003.03
2022-10-05T07:06:32.895Z,1003.02
2022-10-05T07:07:32.903Z,1003.03
2022-10-05T07:08:32.975Z,1002.94
2022-10-05T07:09:32.899Z,1002.78
2022-10-05T07:10:33.343Z,1002.71
2022-10-05T07:11:32.912Z,1002.68
2022-10-05T07:12:32.796Z,1002.71
2022-10-05T07:13:32.828Z,1002.72
2022-10-05T07:14:32.801Z,1002.72
2022-10-05T07:15:32.772Z,1002.73
2022-10-05T07:16:32.819Z,1002.80
2022-10-05T07:17:33.815Z,1002.75
2022-10-05T07:18:32.768Z,1002.76
2022-10-05T07:19:32.776Z,1002.79
2022-10-05T07:20:32.744Z,1002.78
2022-10-05T07:21:32.791Z,1002.79
2022-10-05T07:22:34.215Z,1002.75
2022-10-05T07:23:32.737Z,1002.77
2022-10-05T07:24:32.735Z,1002.77
2022-10-05T07:25:32.708Z,1002.81
2022-10-05T07:26:32.695Z,1002.84
2022-10-05T07:27:32.712Z,1002.71
2022-10-05T07:28:32.849Z,1002.53
2022-10-05T07:29:32.703Z,1002.43
2022-10-05T07:30:32.712Z,1002.18
2022-10-05T07:31:32.674Z,1002.21
2022-10-05T07:32:33.376Z,1002.05
2022-10-05T07:33:32.715Z,1002.07
2022-10-05T07:34:32.639Z,1002.01
2022-10-05T07:35:32.609Z,1002.07
2022-10-05T07:36:32.668Z,1002.13
2022-10-05T07:37:32.689Z,1002.17
2022-10-05T07:38:32.636Z,1002.27
2022-10-05T07:39:58.463Z,1002.27
2022-10-05T07:40:34.588Z,1002.23
2022-10-05T07:41:32.621Z,1002.22
2022-10-05T07:42:32.563Z,1002.34
2022-10-05T07:43:57.568Z,1002.26
2022-10-05T07:44:34.588Z,1002.34
2022-10-05T07:45:32.598Z,1002.38
2022-10-05T07:46:32.588Z,1002.34
2022-10-05T07:47:32.547Z,1002.39
2022-10-05T07:48:32.540Z,1002.41
2022-10-05T07:49:32.537Z,1002.47
2022-10-05T07:50:32.482Z,1002.53
2022-10-05T07:51:32.535Z,1002.55
2022-10-05T07:52:34.933Z,1002.53
2022-10-05T07:53:33.480Z,1002.56
2022-10-05T07:54:32.506Z,1002.49
2022-10-05T07:55:32.519Z,1002.56
2022-10-05T07:56:32.484Z,1002.56
2022-10-05T07:57:32.461Z,1002.60
2022-10-05T07:58:32.436Z,1002.62
2022-10-05T07:59:32.468Z,1002.61
2022-10-05T08:00:32.448Z,1002.61
2022-10-05T08:01:32.453Z,1002.61
2022-10-05T08:02:32.611Z,1002.62
2022-10-05T08:03:32.426Z,1002.69
2022-10-05T08:04:32.471Z,1002.60
2022-10-05T08:05:32.405Z,1002.59
2022-10-05T08:06:32.426Z,1002.55
2022-10-05T08:07:32.387Z,1002.62
2022-10-05T08:08:32.382Z,1002.59
2022-10-05T08:09:32.408Z,1002.56
2022-10-05T08:10:32.340Z,1002.61
2022-10-05T08:11:32.369Z,1002.58
2022-10-05T08:12:32.347Z,1002.62
2022-10-05T08:13:32.365Z,1002.59
2022-10-05T08:14:32.308Z,1002.62
2022-10-05T08:15:32.330Z,1002.58
2022-10-05T08:16:32.312Z,1002.56
2022-10-05T08:17:32.302Z,1002.62
2022-10-05T08:18:32.353Z,1002.54
2022-10-05T08:19:32.298Z,1002.62
2022-10-05T08:20:32.290Z,1002.64
2022-10-05T08:21:34.891Z,1002.59
2022-10-05T08:22:32.284Z,1002.57
2022-10-05T08:23:32.277Z,1002.59
2022-10-05T08:24:32.260Z,1002.62
2022-10-05T08:25:32.229Z,1002.64
2022-10-05T08:26:32.233Z,1002.68
2022-10-05T08:27:32.220Z,1002.64
2022-10-05T08:28:32.298Z,1002.67
2022-10-05T08:29:32.202Z,1002.67
2022-10-05T08:30:32.218Z,1002.71
2022-10-05T08:31:32.267Z,1002.71
2022-10-05T08:32:32.176Z,1002.66
2022-10-05T08:33:32.683Z,1002.63
2022-10-05T08:34:32.175Z,1002.67
2022-10-05T08:35:32.180Z,1002.66
2022-10-05T08:36:32.128Z,1002.66
2022-10-05T08:37:32.142Z,1002.62
2022-10-05T08:38:32.146Z,1002.65
2022-10-05T08:39:32.148Z,1002.71
2022-10-05T08:40:32.133Z,1002.73
2022-10-05T08:41:32.684Z,1002.69
2022-10-05T08:42:32.150Z,1002.72
2022-10-05T08:43:35.496Z,1002.72
2022-10-05T08:44:33.134Z,1002.65
2022-10-05T08:45:32.107Z,1002.78
2022-10-05T08:46:32.118Z,1002.77
2022-10-05T08:47:33.332Z,1002.78
2022-10-05T08:48:32.086Z,1002.73
2022-10-05T08:49:35.167Z,1002.71
2022-10-05T08:50:33.078Z,1002.69
2022-10-05T08:51:32.071Z,1002.73
2022-10-05T08:52:32.043Z,1002.71
2022-10-05T08:53:32.027Z,1002.67
2022-10-05T08:54:32.034Z,1002.67
2022-10-05T08:55:32.040Z,1002.64
2022-10-05T08:56:32.018Z,1002.60
2022-10-05T08:57:32.001Z,1002.64
2022-10-05T08:58:32.049Z,1002.62
2022-10-05T08:59:32.893Z,1002.58
2022-10-05T09:00:31.967Z,1002.58
2022-10-05T09:01:32.097Z,1002.61
2022-10-05T09:02:32.018Z,1002.57
2022-10-05T09:03:34.439Z,1002.56
2022-10-05T09:04:32.937Z,1002.55
2022-10-05T09:05:31.945Z,1002.53
2022-10-05T09:06:31.973Z,1002.54
2022-10-05T09:07:31.945Z,1002.49
2022-10-05T09:08:31.915Z,1002.52
2022-10-05T09:09:31.943Z,1002.46
2022-10-05T09:10:31.911Z,1002.43
2022-10-05T09:11:31.962Z,1002.38
2022-10-05T09:12:31.867Z,1002.39
2022-10-05T09:13:31.868Z,1002.31
2022-10-05T09:14:31.855Z,1002.41
2022-10-05T09:15:31.949Z,1002.33
2022-10-05T09:16:31.896Z,1002.28
2022-10-05T09:17:35.837Z,1002.27
2022-10-05T09:18:32.847Z,1002.30
2022-10-05T09:19:32.856Z,1002.23
2022-10-05T09:20:31.871Z,1002.28
2022-10-05T09:21:31.851Z,1002.15
2022-10-05T09:22:31.856Z,1002.23
2022-10-05T09:23:31.819Z,1002.15
2022-10-05T09:24:31.796Z,1002.16
2022-10-05T09:25:31.820Z,1002.16
2022-10-05T09:26:31.796Z,1002.08
2022-10-05T09:27:31.820Z,1002.12
2022-10-05T09:28:31.882Z,1002.03
2022-10-05T09:29:31.759Z,1001.93
2022-10-05T09:30:31.781Z,1001.90
2022-10-05T09:31:31.853Z,1001.88
2022-10-05T09:32:31.727Z,1001.96
2022-10-05T09:33:31.716Z,1001.92
2022-10-05T09:34:31.754Z,1001.92
2022-10-05T09:35:31.778Z,1001.97
2022-10-05T09:36:31.754Z,1001.86
2022-10-05T09:37:31.740Z,1001.79
2022-10-05T09:38:32.425Z,1001.78
2022-10-05T09:39:31.695Z,1001.82
2022-10-05T09:40:31.675Z,1001.75
2022-10-05T09:41:31.724Z,1001.77
2022-10-05T09:42:31.782Z,1001.75
2022-10-05T09:43:31.696Z,1001.71
2022-10-05T09:44:31.671Z,1001.72
2022-10-05T09:45:31.719Z,1001.72
2022-10-05T09:46:31.729Z,1001.71
2022-10-05T09:47:31.678Z,1001.74
2022-10-05T09:48:31.747Z,1001.68
2022-10-05T09:49:32.398Z,1001.71
2022-10-05T09:50:31.564Z,1001.73
2022-10-05T09:51:31.654Z,1001.66
2022-10-05T09:52:31.572Z,1001.73
2022-10-05T09:53:31.587Z,1001.82
2022-10-05T09:54:32.555Z,1001.73
2022-10-05T09:55:31.565Z,1001.72
2022-10-05T09:56:31.561Z,1001.71
2022-10-05T09:57:31.533Z,1001.66
2022-10-05T09:58:31.526Z,1001.84
2022-10-05T09:59:31.576Z,1001.76
2022-10-05T10:00:31.539Z,1001.75
2022-10-05T10:01:34.097Z,1001.75
2022-10-05T10:02:32.652Z,1001.74
2022-10-05T10:03:31.543Z,1001.71
2022-10-05T10:04:31.510Z,1001.65
2022-10-05T10:05:31.500Z,1001.69
2022-10-05T10:06:32.409Z,1001.70
2022-10-05T10:07:31.483Z,1001.66
2022-10-05T10:08:31.527Z,1001.68
2022-10-05T10:09:33.086Z,1001.75
2022-10-05T10:10:31.463Z,1001.79
2022-10-05T10:11:31.456Z,1001.72
2022-10-05T10:12:31.463Z,1001.71
2022-10-05T10:13:31.481Z,1001.71
2022-10-05T10:14:32.320Z,1001.70
2022-10-05T10:15:31.470Z,1001.69
2022-10-05T10:16:31.441Z,1001.66
2022-10-05T10:17:31.463Z,1001.66
2022-10-05T10:18:32.222Z,1001.65
2022-10-05T10:19:31.449Z,1001.70
2022-10-05T10:20:31.370Z,1001.62
2022-10-05T10:21:31.471Z,1001.63
2022-10-05T10:22:31.435Z,1001.56
2022-10-05T10:23:31.514Z,1001.53
2022-10-05T10:24:31.392Z,1001.55
2022-10-05T10:25:31.328Z,1001.47
2022-10-05T10:26:32.221Z,1001.53
2022-10-05T10:27:31.367Z,1001.50
2022-10-05T10:28:31.404Z,1001.36
2022-10-05T10:29:31.343Z,1001.40
2022-10-05T10:30:33.211Z,1001.41
2022-10-05T10:31:31.928Z,1001.34
2022-10-05T10:32:31.282Z,1001.31
2022-10-05T10:33:31.361Z,1001.27
2022-10-05T10:34:31.291Z,1001.32
2022-10-05T10:35:31.372Z,1001.27
2022-10-05T10:36:31.284Z,1001.29
2022-10-05T10:37:31.306Z,1001.24
2022-10-05T10:38:31.228Z,1001.20
2022-10-05T10:39:31.246Z,1001.19
2022-10-05T10:40:31.202Z,1001.20
2022-10-05T10:41:31.237Z,1001.20
2022-10-05T10:42:31.229Z,1001.15
2022-10-05T10:43:31.178Z,1001.19
2022-10-05T10:44:31.158Z,1001.20
2022-10-05T10:45:31.250Z,1001.18
2022-10-05T10:46:31.195Z,1001.17
2022-10-05T10:47:31.164Z,1001.14
2022-10-05T10:48:31.199Z,1001.09
2022-10-05T10:49:32.199Z,1001.20
2022-10-05T10:50:31.119Z,1001.16
2022-10-05T10:51:31.175Z,1001.08
2022-10-05T10:52:31.140Z,1001.07
2022-10-05T10:53:31.117Z,1001.05
2022-10-05T10:54:31.117Z,1001.07
2022-10-05T10:55:31.103Z,1001.14
2022-10-05T10:56:31.118Z,1001.06
2022-10-05T10:57:31.061Z,1001.08
2022-10-05T10:59:31.778Z,1001.05
2022-10-05T11:00:31.070Z,1000.93
2022-10-05T11:01:31.089Z,1000.92
2022-10-05T11:02:32.099Z,1000.93
2022-10-05T11:03:31.049Z,1000.94
2022-10-05T11:04:31.074Z,1000.88
2022-10-05T11:05:31.017Z,1000.98
2022-10-05T11:06:31.028Z,1000.94
2022-10-05T11:07:31.058Z,1000.93
2022-10-05T11:08:31.006Z,1000.94
2022-10-05T11:09:31.017Z,1000.91
2022-10-05T11:10:30.981Z,1000.89
2022-10-05T11:11:31.027Z,1001.02
2022-10-05T11:12:34.590Z,1000.97
2022-10-05T11:13:31.961Z,1000.96
2022-10-05T11:14:30.991Z,1000.96
2022-10-05T11:15:30.963Z,1000.95
2022-10-05T11:16:30.958Z,1000.87
2022-10-05T11:17:31.000Z,1000.94
2022-10-05T11:18:30.982Z,1000.94
2022-10-05T11:19:40.073Z,1000.82
2022-10-05T11:20:32.953Z,1000.83
2022-10-05T11:21:30.899Z,1000.76
2022-10-05T11:22:30.926Z,1000.76
2022-10-05T11:23:34.162Z,1000.68
2022-10-05T11:24:31.888Z,1000.72
2022-10-05T11:25:30.915Z,1000.68
2022-10-05T11:26:30.887Z,1000.66
2022-10-05T11:27:30.864Z,1000.62
2022-10-05T11:28:30.923Z,1000.67
2022-10-05T11:29:30.852Z,1000.63
2022-10-05T11:30:30.865Z,1000.65
2022-10-05T11:31:30.904Z,1000.61
2022-10-05T11:32:31.846Z,1000.62
2022-10-05T11:33:30.851Z,1000.54
2022-10-05T11:34:30.829Z,1000.58
2022-10-05T11:35:30.891Z,1000.55
2022-10-05T11:36:30.785Z,1000.61
2022-10-05T11:37:30.814Z,1000.55
2022-10-05T11:38:30.796Z,1000.52
2022-10-05T11:39:30.772Z,1000.57
2022-10-05T11:40:31.449Z,1000.47
2022-10-05T11:41:31.445Z,1000.48
2022-10-05T11:42:30.746Z,1000.51
2022-10-05T11:43:30.801Z,1000.63
2022-10-05T11:44:30.815Z,1000.59
2022-10-05T11:45:30.785Z,1000.59
2022-10-05T11:46:30.887Z,1000.60
2022-10-05T11:47:30.698Z,1000.56
2022-10-05T11:48:30.700Z,1000.62
2022-10-05T11:49:30.758Z,1000.59
2022-10-05T11:50:30.729Z,1000.52
2022-10-05T11:51:30.669Z,1000.53
2022-10-05T11:52:30.730Z,1000.58
2022-10-05T11:53:30.730Z,1000.45
2022-10-05T11:54:32.495Z,1000.46
2022-10-05T11:55:31.635Z,1000.42
2022-10-05T11:57:31.655Z,1000.42
2022-10-05T11:58:30.642Z,1000.40
2022-10-05T11:59:30.616Z,1000.36
2022-10-05T12:00:30.600Z,1000.34
2022-10-05T12:01:30.664Z,1000.11
2022-10-05T12:02:30.675Z,1000.32
2022-10-05T12:03:30.663Z,1000.29
2022-10-05T12:04:30.701Z,1000.34
2022-10-05T12:05:30.593Z,1000.29
2022-10-05T12:06:30.579Z,1000.33
2022-10-05T12:07:30.601Z,1000.12
2022-10-05T12:08:30.550Z,1000.26
2022-10-05T12:09:30.560Z,1000.28
2022-10-05T12:10:30.550Z,1000.28
2022-10-05T12:11:30.550Z,1000.25
2022-10-05T12:12:30.537Z,1000.21
2022-10-05T12:13:30.526Z,1000.15
2022-10-05T12:14:30.511Z,1000.23
2022-10-05T12:15:30.490Z,1000.17
2022-10-05T12:16:30.551Z,1000.13
2022-10-05T12:17:30.507Z,1000.27
2022-10-05T12:18:31.455Z,1000.17
2022-10-05T12:19:30.436Z,1000.20
2022-10-05T12:20:30.439Z,1000.22
2022-10-05T12:21:30.447Z,1000.22
2022-10-05T12:22:30.443Z,1000.23
2022-10-05T12:23:30.439Z,1000.22
2022-10-05T12:24:30.461Z,1000.02
2022-10-05T12:25:30.404Z,1000.18
2022-10-05T12:26:30.385Z,1000.22
2022-10-05T12:27:31.439Z,1000.23
2022-10-05T12:28:30.463Z,1000.21
2022-10-05T12:29:30.414Z,1000.20
2022-10-05T12:30:30.393Z,1000.25
2022-10-05T12:31:30.451Z,1000.15
2022-10-05T12:32:30.391Z,1000.23
2022-10-05T12:33:30.389Z,1000.18
2022-10-05T12:34:30.357Z,1000.27
2022-10-05T12:35:47.374Z,1000.16
2022-10-05T12:36:52.467Z,1000.22
2022-10-05T12:37:32.313Z,1000.20
2022-10-05T12:38:30.328Z,1000.17
2022-10-05T12:39:30.321Z,1000.22
2022-10-05T12:40:30.382Z,1000.23